sensor_id;sensor_type;location;lat;lon;timestamp;pressure;altitude;pressure_sealevel;temperature;humidity
54918;BME280;40818;50.562;7.454;2022-07-04T00:04:48;98076.81;;;15.10;79.04
54918;BME280;40818;50.562;7.454;2022-07-04T00:09:52;98072.44;;;15.10;78.40
54918;BME280;40818;50.562;7.454;2022-07-04T05:04:54;98187.78;;;13.12;100.00
54918;BME280;40818;50.562;7.454;2022-07-04T05:09:58;98184.66;;;13.32;100.00
54918;BME280;40818;50.562;7.454;2022-07-04T05:15:01;98184.25;;;13.52;100.00
54918;BME280;40818;50.562;7.454;2022-07-04T05:20:09;98188.66;;;13.75;100.00
54918;BME280;40818;50.562;7.454;2022-07-04T05:25:19;98192.03;;;13.89;100.00
54918;BME280;40818;50.562;7.454;2022-07-04T05:30:23;98196.66;;;14.33;96.18
54918;BME280;40818;50.562;7.454;2022-07-04T05:35:29;98201.78;;;14.71;90.13
54918;BME280;40818;50.562;7.454;2022-07-04T05:40:33;98202.06;;;15.01;90.93
54918;BME280;40818;50.562;7.454;2022-07-04T05:45:36;98210.44;;;15.52;89.32
54918;BME280;40818;50.562;7.454;2022-07-04T05:50:42;98205.59;;;16.14;82.89
54918;BME280;40818;50.562;7.454;2022-07-04T05:55:46;98201.38;;;16.76;81.23
54918;BME280;40818;50.562;7.454;2022-07-04T06:00:49;98203.88;;;17.51;76.19
54918;BME280;40818;50.562;7.454;2022-07-04T06:05:55;98203.63;;;18.24;71.04
54918;BME280;40818;50.562;7.454;2022-07-04T06:10:59;98190.97;;;18.96;70.00
54918;BME280;40818;50.562;7.454;2022-07-04T06:16:03;98186.66;;;19.70;64.87
54918;BME280;40818;50.562;7.454;2022-07-04T06:21:09;98205.59;;;20.29;61.28
54918;BME280;40818;50.562;7.454;2022-07-04T06:26:12;98201.16;;;20.92;61.43
54918;BME280;40818;50.562;7.454;2022-07-04T06:31:16;98212.28;;;21.65;60.27
54918;BME280;40818;50.562;7.454;2022-07-04T06:36:22;98208.16;;;22.30;57.36
54918;BME280;40818;50.562;7.454;2022-07-04T06:41:26;98209.50;;;22.83;54.35
54918;BME280;40818;50.562;7.454;2022-07-04T06:46:29;98212.19;;;23.48;51.39
54918;BME280;40818;50.562;7.454;2022-07-04T06:51:35;98200.63;;;24.12;49.23
54918;BME280;40818;50.562;7.454;2022-07-04T06:56:39;98204.38;;;24.72;48.73
54918;BME280;40818;50.562;7.454;2022-07-04T07:01:42;98193.34;;;25.13;50.37
54918;BME280;40818;50.562;7.454;2022-07-04T07:06:48;98197.03;;;25.57;45.16
54918;BME280;40818;50.562;7.454;2022-07-04T07:11:52;98193.22;;;26.18;46.74
54918;BME280;40818;50.562;7.454;2022-07-04T07:16:55;98186.41;;;26.80;43.74
54918;BME280;40818;50.562;7.454;2022-07-04T07:22:02;98183.41;;;27.25;40.00
54918;BME280;40818;50.562;7.454;2022-07-04T07:27:07;98183.84;;;27.64;41.60
54918;BME280;40818;50.562;7.454;2022-07-04T07:32:10;98183.38;;;28.02;36.18
54918;BME280;40818;50.562;7.454;2022-07-04T07:37:16;98182.00;;;28.59;39.17
54918;BME280;40818;50.562;7.454;2022-07-04T07:42:23;98178.72;;;28.91;36.90
54918;BME280;40818;50.562;7.454;2022-07-04T07:47:27;98173.44;;;29.56;35.94
54918;BME280;40818;50.562;7.454;2022-07-04T07:52:33;98163.94;;;30.06;34.49
54918;BME280;40818;50.562;7.454;2022-07-04T07:57:36;98173.31;;;30.54;32.35
54918;BME280;40818;50.562;7.454;2022-07-04T08:02:39;98171.38;;;30.86;31.60
54918;BME280;40818;50.562;7.454;2022-07-04T08:07:58;98168.13;;;31.40;29.74
54918;BME280;40818;50.562;7.454;2022-07-04T08:13:02;98162.19;;;31.38;25.88
54918;BME280;40818;50.562;7.454;2022-07-04T08:18:05;98163.53;;;31.47;27.84
54918;BME280;40818;50.562;7.454;2022-07-04T08:23:11;98162.16;;;31.75;28.86
54918;BME280;40818;50.562;7.454;2022-07-04T08:28:15;98171.53;;;32.14;26.11
54918;BME280;40818;50.562;7.454;2022-07-04T08:33:18;98172.06;;;32.05;27.75
54918;BME280;40818;50.562;7.454;2022-07-04T08:38:24;98163.91;;;32.42;26.76
54918;BME280;40818;50.562;7.454;2022-07-04T08:43:30;98173.81;;;32.53;25.77
54918;BME280;40818;50.562;7.454;2022-07-04T08:48:34;98175.13;;;31.59;26.00
54918;BME280;40818;50.562;7.454;2022-07-04T08:53:49;98173.69;;;32.36;27.03
54918;BME280;40818;50.562;7.454;2022-07-04T08:58:56;98169.19;;;32.84;26.26
54918;BME280;40818;50.562;7.454;2022-07-04T09:04:01;98158.25;;;32.31;25.23
54918;BME280;40818;50.562;7.454;2022-07-04T09:09:07;98164.84;;;32.47;24.43
54918;BME280;40818;50.562;7.454;2022-07-04T09:14:11;98165.31;;;31.35;26.21
54918;BME280;40818;50.562;7.454;2022-07-04T09:19:19;98161.44;;;32.52;23.17
54918;BME280;40818;50.562;7.454;2022-07-04T09:24:46;98159.31;;;32.42;24.68
54918;BME280;40818;50.562;7.454;2022-07-04T09:29:51;98157.91;;;33.34;24.19
54918;BME280;40818;50.562;7.454;2022-07-04T09:34:56;98160.38;;;32.41;24.10
54918;BME280;40818;50.562;7.454;2022-07-04T09:40:03;98167.69;;;31.43;25.23
54918;BME280;40818;50.562;7.454;2022-07-04T09:45:09;98164.63;;;30.26;26.61
54918;BME280;40818;50.562;7.454;2022-07-04T09:50:14;98170.03;;;30.95;25.64
54918;BME280;40818;50.562;7.454;2022-07-04T09:55:26;98161.53;;;31.61;26.85
54918;BME280;40818;50.562;7.454;2022-07-04T10:00:32;98158.78;;;31.79;25.78
54918;BME280;40818;50.562;7.454;2022-07-04T10:05:36;98158.63;;;30.56;27.02
54918;BME280;40818;50.562;7.454;2022-07-04T10:10:42;98153.91;;;31.39;26.65
54918;BME280;40818;50.562;7.454;2022-07-04T10:15:45;98153.22;;;32.23;23.49
54918;BME280;40818;50.562;7.454;2022-07-04T10:20:50;98140.31;;;32.56;24.68
54918;BME280;40818;50.562;7.454;2022-07-04T10:25:57;98126.66;;;32.69;23.97
54918;BME280;40818;50.562;7.454;2022-07-04T10:31:01;98126.63;;;33.57;24.83
54918;BME280;40818;50.562;7.454;2022-07-04T10:36:13;98117.22;;;33.19;25.70
54918;BME280;40818;50.562;7.454;2022-07-04T10:41:21;98119.53;;;32.09;25.41
54918;BME280;40818;50.562;7.454;2022-07-04T10:46:43;98114.94;;;32.40;26.79
54918;BME280;40818;50.562;7.454;2022-07-04T10:51:48;98125.03;;;32.80;26.15
54918;BME280;40818;50.562;7.454;2022-07-04T10:56:56;98118.19;;;33.13;25.37
54918;BME280;40818;50.562;7.454;2022-07-04T11:02:27;98113.16;;;33.28;24.61
54918;BME280;40818;50.562;7.454;2022-07-04T11:07:58;98110.75;;;32.32;25.61
54918;BME280;40818;50.562;7.454;2022-07-04T11:13:16;98118.88;;;31.83;23.29
54918;BME280;40818;50.562;7.454;2022-07-04T11:18:20;98122.34;;;31.72;24.88
54918;BME280;40818;50.562;7.454;2022-07-04T11:23:24;98118.81;;;32.32;25.11
54918;BME280;40818;50.562;7.454;2022-07-04T11:28:30;98122.88;;;33.29;24.51
54918;BME280;40818;50.562;7.454;2022-07-04T11:33:37;98124.31;;;32.96;24.07
54918;BME280;40818;50.562;7.454;2022-07-04T11:38:52;98119.16;;;32.05;25.48
54918;BME280;40818;50.562;7.454;2022-07-04T11:44:02;98109.41;;;33.29;24.75
54918;BME280;40818;50.562;7.454;2022-07-04T11:49:18;98107.88;;;34.25;23.15
54918;BME280;40818;50.562;7.454;2022-07-04T11:54:22;98109.06;;;34.29;21.68
54918;BME280;40818;50.562;7.454;2022-07-04T11:59:28;98107.38;;;32.84;23.92
54918;BME280;40818;50.562;7.454;2022-07-04T12:04:31;98105.84;;;33.69;23.46
54918;BME280;40818;50.562;7.454;2022-07-04T12:09:35;98102.19;;;34.56;23.17
54918;BME280;40818;50.562;7.454;2022-07-04T12:14:56;98108.28;;;34.17;21.12
54918;BME280;40818;50.562;7.454;2022-07-04T12:20:01;98105.00;;;32.28;23.40
54918;BME280;40818;50.562;7.454;2022-07-04T12:25:20;98091.00;;;32.86;24.38
54918;BME280;40818;50.562;7.454;2022-07-04T12:30:30;98108.66;;;31.92;25.16
54918;BME280;40818;50.562;7.454;2022-07-04T12:35:37;98098.13;;;32.56;25.16
54918;BME280;40818;50.562;7.454;2022-07-04T12:40:52;98091.97;;;33.20;22.87
54918;BME280;40818;50.562;7.454;2022-07-04T12:45:59;98085.41;;;33.40;24.18
54918;BME280;40818;50.562;7.454;2022-07-04T12:51:10;98086.94;;;33.64;23.22
54918;BME280;40818;50.562;7.454;2022-07-04T12:56:28;98077.72;;;33.60;23.23
54918;BME280;40818;50.562;7.454;2022-07-04T13:01:34;98071.47;;;32.66;23.06
54918;BME280;40818;50.562;7.454;2022-07-04T13:06:39;98074.78;;;32.45;24.07
54918;BME280;40818;50.562;7.454;2022-07-04T13:11:42;98080.25;;;32.62;23.36
54918;BME280;40818;50.562;7.454;2022-07-04T13:17:01;98075.50;;;32.40;20.24
54918;BME280;40818;50.562;7.454;2022-07-04T13:22:04;98071.22;;;32.09;23.90
54918;BME280;40818;50.562;7.454;2022-07-04T13:27:08;98065.88;;;32.80;23.33
54918;BME280;40818;50.562;7.454;2022-07-04T13:32:14;98056.88;;;32.86;22.41
54918;BME280;40818;50.562;7.454;2022-07-04T13:37:17;98062.84;;;32.41;22.52
54918;BME280;40818;50.562;7.454;2022-07-04T13:42:21;98066.34;;;32.41;24.57
54918;BME280;40818;50.562;7.454;2022-07-04T13:47:40;98066.63;;;31.86;25.17
54918;BME280;40818;50.562;7.454;2022-07-04T13:52:43;98065.22;;;31.04;24.99
54918;BME280;40818;50.562;7.454;2022-07-04T13:57:47;98058.78;;;29.99;26.45
54918;BME280;40818;50.562;7.454;2022-07-04T14:02:53;98056.41;;;29.00;26.89
54918;BME280;40818;50.562;7.454;2022-07-04T14:07:57;98054.34;;;29.02;27.60
54918;BME280;40818;50.562;7.454;2022-07-04T14:13:01;98054.75;;;29.05;27.29
54918;BME280;40818;50.562;7.454;2022-07-04T14:18:07;98050.09;;;28.81;27.23
54918;BME280;40818;50.562;7.454;2022-07-04T14:23:14;98040.63;;;28.91;27.95
54918;BME280;40818;50.562;7.454;2022-07-04T14:28:38;98036.41;;;28.10;28.19
54918;BME280;40818;50.562;7.454;2022-07-04T14:33:47;98030.06;;;28.31;29.16
54918;BME280;40818;50.562;7.454;2022-07-04T14:38:51;98030.63;;;28.53;27.89
54918;BME280;40818;50.562;7.454;2022-07-04T14:43:54;98025.25;;;28.60;26.26
54918;BME280;40818;50.562;7.454;2022-07-04T14:49:00;98017.56;;;28.12;28.74
54918;BME280;40818;50.562;7.454;2022-07-04T14:54:04;98012.38;;;27.70;30.07
54918;BME280;40818;50.562;7.454;2022-07-04T14:59:07;98006.03;;;27.98;28.98
54918;BME280;40818;50.562;7.454;2022-07-04T15:04:14;97996.16;;;27.65;28.68
54918;BME280;40818;50.562;7.454;2022-07-04T15:09:17;97994.94;;;27.61;30.09
54918;BME280;40818;50.562;7.454;2022-07-04T15:14:22;97996.59;;;27.62;29.80
54918;BME280;40818;50.562;7.454;2022-07-04T15:19:28;97987.13;;;27.72;29.13
54918;BME280;40818;50.562;7.454;2022-07-04T15:24:51;97993.34;;;27.11;30.13
54918;BME280;40818;50.562;7.454;2022-07-04T15:29:58;98001.22;;;26.71;31.18
54918;BME280;40818;50.562;7.454;2022-07-04T15:35:05;97993.97;;;26.65;31.29
54918;BME280;40818;50.562;7.454;2022-07-04T15:40:09;97998.50;;;26.36;32.10
54918;BME280;40818;50.562;7.454;2022-07-04T15:45:13;97996.00;;;26.28;32.09
54918;BME280;40818;50.562;7.454;2022-07-04T15:50:19;97986.16;;;26.21;32.15
54918;BME280;40818;50.562;7.454;2022-07-04T15:55:24;97985.22;;;26.08;32.45
54918;BME280;40818;50.562;7.454;2022-07-04T16:00:27;97990.06;;;25.97;32.39
54918;BME280;40818;50.562;7.454;2022-07-04T16:05:34;97980.78;;;25.65;32.52
54918;BME280;40818;50.562;7.454;2022-07-04T16:10:38;97983.06;;;25.46;33.20
54918;BME280;40818;50.562;7.454;2022-07-04T16:15:42;97973.56;;;25.37;33.51
54918;BME280;40818;50.562;7.454;2022-07-04T16:20:48;97970.81;;;24.94;33.33
54918;BME280;40818;50.562;7.454;2022-07-04T16:25:51;97967.75;;;24.90;33.71
54918;BME280;40818;50.562;7.454;2022-07-04T16:30:55;97976.56;;;24.61;34.20
54918;BME280;40818;50.562;7.454;2022-07-04T16:36:01;97977.91;;;24.57;35.03
54918;BME280;40818;50.562;7.454;2022-07-04T16:41:04;97983.59;;;24.68;34.88
54918;BME280;40818;50.562;7.454;2022-07-04T16:46:08;97967.00;;;24.81;35.04
54918;BME280;40818;50.562;7.454;2022-07-04T16:51:14;97977.69;;;25.03;34.55
54918;BME280;40818;50.562;7.454;2022-07-04T16:56:17;97979.97;;;24.91;35.06
54918;BME280;40818;50.562;7.454;2022-07-04T17:01:21;97985.44;;;24.68;33.80
54918;BME280;40818;50.562;7.454;2022-07-04T17:06:27;97976.06;;;24.42;34.66
54918;BME280;40818;50.562;7.454;2022-07-04T17:11:31;97983.47;;;24.17;35.03
54918;BME280;40818;50.562;7.454;2022-07-04T17:16:34;97986.09;;;24.02;35.31
54918;BME280;40818;50.562;7.454;2022-07-04T17:21:40;97990.69;;;24.08;35.07
54918;BME280;40818;50.562;7.454;2022-07-04T17:26:44;97980.97;;;24.00;34.91
54918;BME280;40818;50.562;7.454;2022-07-04T17:31:47;97984.94;;;23.81;34.97
54918;BME280;40818;50.562;7.454;2022-07-04T17:36:53;97981.88;;;23.46;36.56
54918;BME280;40818;50.562;7.454;2022-07-04T17:41:57;97986.81;;;23.26;37.31
54918;BME280;40818;50.562;7.454;2022-07-04T17:47:00;97989.88;;;23.15;36.74
54918;BME280;40818;50.562;7.454;2022-07-04T17:52:06;97986.16;;;22.93;36.52
54918;BME280;40818;50.562;7.454;2022-07-04T17:57:10;97991.81;;;22.90;36.85
54918;BME280;40818;50.562;7.454;2022-07-04T18:02:13;97988.88;;;22.76;37.40
54918;BME280;40818;50.562;7.454;2022-07-04T18:07:19;97992.13;;;22.47;37.76
54918;BME280;40818;50.562;7.454;2022-07-04T18:12:23;97999.56;;;22.35;37.95
54918;BME280;40818;50.562;7.454;2022-07-04T18:17:27;98005.38;;;22.14;38.17
54918;BME280;40818;50.562;7.454;2022-07-04T18:22:33;98006.06;;;21.99;39.98
54918;BME280;40818;50.562;7.454;2022-07-04T18:27:37;97998.66;;;21.95;39.49
54918;BME280;40818;50.562;7.454;2022-07-04T18:32:40;98003.44;;;21.75;40.01
54918;BME280;40818;50.562;7.454;2022-07-04T18:37:47;98001.44;;;21.60;39.81
54918;BME280;40818;50.562;7.454;2022-07-04T18:42:50;97999.09;;;21.49;40.73
54918;BME280;40818;50.562;7.454;2022-07-04T18:48:06;98004.53;;;21.39;40.40
54918;BME280;40818;50.562;7.454;2022-07-04T18:53:13;98000.03;;;21.23;40.92
54918;BME280;40818;50.562;7.454;2022-07-04T18:58:16;98015.38;;;21.20;41.63
54918;BME280;40818;50.562;7.454;2022-07-04T19:03:20;98025.91;;;21.11;41.77
54918;BME280;40818;50.562;7.454;2022-07-04T19:08:27;98021.75;;;21.01;41.49
54918;BME280;40818;50.562;7.454;2022-07-04T19:13:31;98028.31;;;20.88;42.54
54918;BME280;40818;50.562;7.454;2022-07-04T19:18:34;98028.44;;;20.78;43.16
54918;BME280;40818;50.562;7.454;2022-07-04T19:23:42;98040.44;;;20.73;43.98
54918;BME280;40818;50.562;7.454;2022-07-04T19:28:46;98043.16;;;20.63;44.10
54918;BME280;40818;50.562;7.454;2022-07-04T19:33:50;98046.88;;;20.52;44.24
54918;BME280;40818;50.562;7.454;2022-07-04T19:38:56;98053.25;;;20.41;44.72
54918;BME280;40818;50.562;7.454;2022-07-04T19:43:59;98051.72;;;20.31;44.98
54918;BME280;40818;50.562;7.454;2022-07-04T19:49:03;98059.84;;;20.19;45.12
54918;BME280;40818;50.562;7.454;2022-07-04T19:54:09;98067.19;;;20.07;45.50
54918;BME280;40818;50.562;7.454;2022-07-04T19:59:12;98077.28;;;19.94;45.38
54918;BME280;40818;50.562;7.454;2022-07-04T20:04:16;98075.69;;;19.83;45.64
54918;BME280;40818;50.562;7.454;2022-07-04T20:09:22;98084.63;;;19.72;45.90
54918;BME280;40818;50.562;7.454;2022-07-04T20:14:26;98088.47;;;19.60;45.95
54918;BME280;40818;50.562;7.454;2022-07-04T20:19:29;98089.34;;;19.51;46.62
54918;BME280;40818;50.562;7.454;2022-07-04T20:24:36;98095.50;;;19.41;46.86
54918;BME280;40818;50.562;7.454;2022-07-04T20:29:40;98090.44;;;19.30;46.92
54918;BME280;40818;50.562;7.454;2022-07-04T20:34:44;98096.59;;;19.21;47.58
54918;BME280;40818;50.562;7.454;2022-07-04T20:39:58;98096.50;;;19.13;48.06
54918;BME280;40818;50.562;7.454;2022-07-04T20:45:02;98100.81;;;19.04;48.05
54918;BME280;40818;50.562;7.454;2022-07-04T20:50:07;98103.47;;;18.94;48.89
54918;BME280;40818;50.562;7.454;2022-07-04T20:55:13;98113.03;;;18.85;49.14
54918;BME280;40818;50.562;7.454;2022-07-04T21:00:17;98105.03;;;18.77;49.31
54918;BME280;40818;50.562;7.454;2022-07-04T21:05:21;98110.31;;;18.67;49.46
54918;BME280;40818;50.562;7.454;2022-07-04T21:10:28;98115.31;;;18.60;50.04
54918;BME280;40818;50.562;7.454;2022-07-04T21:15:32;98111.75;;;18.52;50.33
54918;BME280;40818;50.562;7.454;2022-07-04T21:20:35;98110.66;;;18.45;50.50
54918;BME280;40818;50.562;7.454;2022-07-04T21:25:41;98109.72;;;18.36;51.09
54918;BME280;40818;50.562;7.454;2022-07-04T21:30:45;98108.47;;;18.30;51.22
54918;BME280;40818;50.562;7.454;2022-07-04T21:35:49;98114.56;;;18.21;51.64
54918;BME280;40818;50.562;7.454;2022-07-04T21:40:55;98118.72;;;18.14;51.96
54918;BME280;40818;50.562;7.454;2022-07-04T21:45:59;98114.09;;;17.77;53.55
54918;BME280;40818;50.562;7.454;2022-07-04T21:51:03;98122.09;;;17.65;54.12
54918;BME280;40818;50.562;7.454;2022-07-04T21:56:09;98129.41;;;17.62;54.62
54918;BME280;40818;50.562;7.454;2022-07-04T22:01:12;98120.41;;;17.54;54.50
54918;BME280;40818;50.562;7.454;2022-07-04T22:06:16;98133.97;;;17.50;54.37
54918;BME280;40818;50.562;7.454;2022-07-04T22:11:22;98130.91;;;17.45;54.55
54918;BME280;40818;50.562;7.454;2022-07-04T22:16:25;98135.97;;;17.36;54.64
54918;BME280;40818;50.562;7.454;2022-07-04T22:21:29;98143.41;;;17.31;55.09
54918;BME280;40818;50.562;7.454;2022-07-04T22:26:35;98134.28;;;17.26;55.07
54918;BME280;40818;50.562;7.454;2022-07-04T22:31:38;98133.38;;;17.05;55.50
54918;BME280;40818;50.562;7.454;2022-07-04T22:36:42;98143.44;;;17.00;56.48
54918;BME280;40818;50.562;7.454;2022-07-04T22:41:48;98130.00;;;16.94;56.95
54918;BME280;40818;50.562;7.454;2022-07-04T22:46:51;98131.34;;;16.88;57.17
54918;BME280;40818;50.562;7.454;2022-07-04T22:51:55;98142.22;;;16.83;56.85
54918;BME280;40818;50.562;7.454;2022-07-04T22:57:01;98135.72;;;16.78;57.15
54918;BME280;40818;50.562;7.454;2022-07-04T23:02:04;98137.06;;;16.72;56.61
54918;BME280;40818;50.562;7.454;2022-07-04T23:07:08;98140.09;;;16.67;56.90
54918;BME280;40818;50.562;7.454;2022-07-04T23:12:14;98141.28;;;16.63;57.16
54918;BME280;40818;50.562;7.454;2022-07-04T23:17:18;98129.53;;;16.58;57.19
54918;BME280;40818;50.562;7.454;2022-07-04T23:22:21;98136.94;;;16.52;57.45
54918;BME280;40818;50.562;7.454;2022-07-04T23:27:27;98139.81;;;16.49;57.54
54918;BME280;40818;50.562;7.454;2022-07-04T23:32:31;98139.31;;;16.34;58.98
54918;BME280;40818;50.562;7.454;2022-07-04T23:37:34;98141.47;;;16.29;59.08
54918;BME280;40818;50.562;7.454;2022-07-04T23:42:40;98137.56;;;16.24;59.83
54918;BME280;40818;50.562;7.454;2022-07-04T23:47:44;98132.72;;;16.19;59.72
54918;BME280;40818;50.562;7.454;2022-07-04T23:52:48;98133.91;;;16.15;60.61
54918;BME280;40818;50.562;7.454;2022-07-04T23:57:53;98132.50;;;16.11;60.13
